sensor_id;sensor_type;location;lat;lon;timestamp;P1;durP1;ratioP1;P2;durP2;ratioP2
18505;SDS011;9382;53.242;10.438;2024-01-10T00:00:11;22.97;;;9.67;;
18505;SDS011;9382;53.242;10.438;2024-01-10T00:02:38;20.30;;;8.07;;
18505;SDS011;9382;53.242;10.438;2024-01-10T00:05:07;21.77;;;8.63;;
18505;SDS011;9382;53.242;10.438;2024-01-10T00:07:34;15.93;;;7.87;;
18505;SDS011;9382;53.242;10.438;2024-01-10T00:10:04;24.93;;;9.70;;
18505;SDS011;9382;53.242;10.438;2024-01-10T00:12:32;24.73;;;9.50;;
18505;SDS011;9382;53.242;10.438;2024-01-10T00:15:02;20.77;;;8.47;;
18505;SDS011;9382;53.242;10.438;2024-01-10T00:17:29;18.53;;;9.40;;
18505;SDS011;9382;53.242;10.438;2024-01-10T00:20:01;21.30;;;9.23;;
18505;SDS011;9382;53.242;10.438;2024-01-10T00:22:32;24.17;;;8.93;;
18505;SDS011;9382;53.242;10.438;2024-01-10T00:24:59;18.00;;;9.20;;
18505;SDS011;9382;53.242;10.438;2024-01-10T00:27:29;23.37;;;7.43;;
18505;SDS011;9382;53.242;10.438;2024-01-10T00:29:58;18.03;;;8.50;;
18505;SDS011;9382;53.242;10.438;2024-01-10T00:32:28;23.03;;;9.77;;
18505;SDS011;9382;53.242;10.438;2024-01-10T00:34:55;17.73;;;8.27;;
18505;SDS011;9382;53.242;10.438;2024-01-10T00:37:27;25.40;;;10.03;;
18505;SDS011;9382;53.242;10.438;2024-01-10T00:40:02;21.97;;;8.60;;
18505;SDS011;9382;53.242;10.438;2024-01-10T00:42:30;25.57;;;9.47;;
18505;SDS011;9382;53.242;10.438;2024-01-10T00:44:57;23.40;;;8.90;;
18505;SDS011;9382;53.242;10.438;2024-01-10T00:47:26;20.63;;;8.53;;
18505;SDS011;9382;53.242;10.438;2024-01-10T00:49:53;21.83;;;8.80;;
18505;SDS011;9382;53.242;10.438;2024-01-10T00:52:25;21.33;;;9.03;;
18505;SDS011;9382;53.242;10.438;2024-01-10T00:54:53;15.20;;;7.93;;
18505;SDS011;9382;53.242;10.438;2024-01-10T00:57:23;17.03;;;8.43;;
18505;SDS011;9382;53.242;10.438;2024-01-10T00:59:56;18.80;;;7.60;;
18505;SDS011;9382;53.242;10.438;2024-01-10T01:02:29;14.07;;;6.83;;
18505;SDS011;9382;53.242;10.438;2024-01-10T01:04:56;19.73;;;8.17;;
18505;SDS011;9382;53.242;10.438;2024-01-10T01:07:23;19.03;;;8.83;;
18505;SDS011;9382;53.242;10.438;2024-01-10T01:09:51;16.53;;;7.50;;
18505;SDS011;9382;53.242;10.438;2024-01-10T01:12:19;14.73;;;7.47;;
18505;SDS011;9382;53.242;10.438;2024-01-10T01:14:46;27.80;;;10.23;;
18505;SDS011;9382;53.242;10.438;2024-01-10T01:17:16;23.97;;;9.17;;
18505;SDS011;9382;53.242;10.438;2024-01-10T01:19:48;25.77;;;9.47;;
18505;SDS011;9382;53.242;10.438;2024-01-10T01:22:15;15.27;;;7.87;;
18505;SDS011;9382;53.242;10.438;2024-01-10T01:24:42;25.23;;;8.33;;
18505;SDS011;9382;53.242;10.438;2024-01-10T01:27:10;16.03;;;7.93;;
18505;SDS011;9382;53.242;10.438;2024-01-10T01:29:40;22.00;;;8.90;;
18505;SDS011;9382;53.242;10.438;2024-01-10T01:32:09;19.30;;;8.43;;
18505;SDS011;9382;53.242;10.438;2024-01-10T01:34:39;17.93;;;8.30;;
18505;SDS011;9382;53.242;10.438;2024-01-10T01:37:08;20.50;;;8.87;;
18505;SDS011;9382;53.242;10.438;2024-01-10T01:39:40;16.57;;;8.47;;
18505;SDS011;9382;53.242;10.438;2024-01-10T01:42:07;24.50;;;9.13;;
18505;SDS011;9382;53.242;10.438;2024-01-10T01:44:36;14.97;;;7.83;;
18505;SDS011;9382;53.242;10.438;2024-01-10T01:47:07;18.87;;;8.93;;
18505;SDS011;9382;53.242;10.438;2024-01-10T01:49:57;14.30;;;8.33;;
18505;SDS011;9382;53.242;10.438;2024-01-10T01:52:24;26.50;;;8.47;;
18505;SDS011;9382;53.242;10.438;2024-01-10T01:54:56;15.03;;;8.43;;
18505;SDS011;9382;53.242;10.438;2024-01-10T01:57:26;23.13;;;8.87;;
18505;SDS011;9382;53.242;10.438;2024-01-10T01:59:53;24.83;;;8.57;;
18505;SDS011;9382;53.242;10.438;2024-01-10T02:02:42;20.77;;;8.23;;
18505;SDS011;9382;53.242;10.438;2024-01-10T02:05:10;12.57;;;5.90;;
18505;SDS011;9382;53.242;10.438;2024-01-10T02:07:42;14.80;;;7.17;;
18505;SDS011;9382;53.242;10.438;2024-01-10T02:10:11;17.80;;;9.37;;
18505;SDS011;9382;53.242;10.438;2024-01-10T02:12:40;21.13;;;8.37;;
18505;SDS011;9382;53.242;10.438;2024-01-10T02:15:08;15.10;;;8.07;;
18505;SDS011;9382;53.242;10.438;2024-01-10T02:17:41;19.20;;;8.07;;
18505;SDS011;9382;53.242;10.438;2024-01-10T02:20:10;30.83;;;8.00;;
18505;SDS011;9382;53.242;10.438;2024-01-10T02:22:41;20.50;;;7.53;;
18505;SDS011;9382;53.242;10.438;2024-01-10T02:25:11;18.43;;;7.17;;
18505;SDS011;9382;53.242;10.438;2024-01-10T02:27:42;14.43;;;7.43;;
18505;SDS011;9382;53.242;10.438;2024-01-10T02:30:25;18.37;;;8.00;;
18505;SDS011;9382;53.242;10.438;2024-01-10T02:32:57;27.57;;;7.90;;
18505;SDS011;9382;53.242;10.438;2024-01-10T02:35:24;21.33;;;8.67;;
18505;SDS011;9382;53.242;10.438;2024-01-10T02:37:51;17.03;;;7.33;;
18505;SDS011;9382;53.242;10.438;2024-01-10T02:40:20;16.33;;;7.50;;
18505;SDS011;9382;53.242;10.438;2024-01-10T02:42:49;13.90;;;7.87;;
18505;SDS011;9382;53.242;10.438;2024-01-10T02:45:22;14.20;;;7.53;;
18505;SDS011;9382;53.242;10.438;2024-01-10T02:47:50;20.30;;;7.47;;
18505;SDS011;9382;53.242;10.438;2024-01-10T02:50:19;13.70;;;7.33;;
18505;SDS011;9382;53.242;10.438;2024-01-10T02:52:51;20.80;;;8.67;;
18505;SDS011;9382;53.242;10.438;2024-01-10T02:55:18;19.80;;;7.47;;
18505;SDS011;9382;53.242;10.438;2024-01-10T02:57:47;17.33;;;7.60;;
18505;SDS011;9382;53.242;10.438;2024-01-10T03:00:14;11.50;;;7.63;;
18505;SDS011;9382;53.242;10.438;2024-01-10T03:02:46;20.97;;;9.83;;
18505;SDS011;9382;53.242;10.438;2024-01-10T03:05:13;13.80;;;7.03;;
18505;SDS011;9382;53.242;10.438;2024-01-10T03:07:41;16.00;;;7.50;;
18505;SDS011;9382;53.242;10.438;2024-01-10T03:10:09;16.90;;;7.93;;
18505;SDS011;9382;53.242;10.438;2024-01-10T03:12:36;10.23;;;5.93;;
18505;SDS011;9382;53.242;10.438;2024-01-10T03:15:05;13.07;;;8.20;;
18505;SDS011;9382;53.242;10.438;2024-01-10T03:17:33;14.70;;;6.70;;
18505;SDS011;9382;53.242;10.438;2024-01-10T03:20:02;12.50;;;6.63;;
18505;SDS011;9382;53.242;10.438;2024-01-10T03:22:33;13.27;;;6.37;;
18505;SDS011;9382;53.242;10.438;2024-01-10T03:25:01;16.27;;;7.37;;
18505;SDS011;9382;53.242;10.438;2024-01-10T03:27:30;14.53;;;6.83;;
18505;SDS011;9382;53.242;10.438;2024-01-10T03:29:57;15.40;;;7.60;;
18505;SDS011;9382;53.242;10.438;2024-01-10T03:32:26;13.40;;;7.53;;
18505;SDS011;9382;53.242;10.438;2024-01-10T03:34:53;15.10;;;6.80;;
18505;SDS011;9382;53.242;10.438;2024-01-10T03:37:20;15.40;;;7.57;;
18505;SDS011;9382;53.242;10.438;2024-01-10T03:39:59;15.83;;;7.13;;
18505;SDS011;9382;53.242;10.438;2024-01-10T03:42:36;10.93;;;5.37;;
18505;SDS011;9382;53.242;10.438;2024-01-10T03:45:10;18.73;;;7.33;;
18505;SDS011;9382;53.242;10.438;2024-01-10T03:47:43;22.93;;;6.53;;
18505;SDS011;9382;53.242;10.438;2024-01-10T03:50:17;18.60;;;7.80;;
18505;SDS011;9382;53.242;10.438;2024-01-10T03:52:46;21.87;;;7.60;;
18505;SDS011;9382;53.242;10.438;2024-01-10T03:55:14;23.37;;;7.03;;
18505;SDS011;9382;53.242;10.438;2024-01-10T03:57:43;12.73;;;6.43;;
18505;SDS011;9382;53.242;10.438;2024-01-10T04:00:11;18.13;;;8.00;;
18505;SDS011;9382;53.242;10.438;2024-01-10T04:02:46;21.07;;;8.80;;
18505;SDS011;9382;53.242;10.438;2024-01-10T04:05:15;20.90;;;7.90;;
18505;SDS011;9382;53.242;10.438;2024-01-10T04:07:43;12.83;;;7.00;;
18505;SDS011;9382;53.242;10.438;2024-01-10T04:10:13;20.63;;;7.97;;
18505;SDS011;9382;53.242;10.438;2024-01-10T04:12:43;23.13;;;7.83;;
18505;SDS011;9382;53.242;10.438;2024-01-10T04:15:12;20.20;;;7.47;;
18505;SDS011;9382;53.242;10.438;2024-01-10T04:17:43;19.30;;;7.60;;
18505;SDS011;9382;53.242;10.438;2024-01-10T04:20:14;15.63;;;6.37;;
18505;SDS011;9382;53.242;10.438;2024-01-10T04:22:45;19.27;;;7.67;;
18505;SDS011;9382;53.242;10.438;2024-01-10T04:25:15;15.87;;;6.93;;
18505;SDS011;9382;53.242;10.438;2024-01-10T04:27:49;18.13;;;7.57;;
18505;SDS011;9382;53.242;10.438;2024-01-10T04:30:26;11.73;;;6.73;;
18505;SDS011;9382;53.242;10.438;2024-01-10T04:32:59;16.17;;;8.20;;
18505;SDS011;9382;53.242;10.438;2024-01-10T04:35:30;22.07;;;7.07;;
18505;SDS011;9382;53.242;10.438;2024-01-10T04:37:57;20.97;;;6.50;;
18505;SDS011;9382;53.242;10.438;2024-01-10T04:40:26;21.93;;;8.80;;
18505;SDS011;9382;53.242;10.438;2024-01-10T04:42:53;22.60;;;8.33;;
18505;SDS011;9382;53.242;10.438;2024-01-10T04:45:23;14.53;;;7.03;;
18505;SDS011;9382;53.242;10.438;2024-01-10T04:47:50;16.40;;;7.13;;
18505;SDS011;9382;53.242;10.438;2024-01-10T04:50:21;16.97;;;7.07;;
18505;SDS011;9382;53.242;10.438;2024-01-10T04:52:49;19.30;;;6.50;;
18505;SDS011;9382;53.242;10.438;2024-01-10T04:55:16;16.73;;;7.47;;
18505;SDS011;9382;53.242;10.438;2024-01-10T04:57:43;19.87;;;7.17;;
18505;SDS011;9382;53.242;10.438;2024-01-10T05:00:15;19.83;;;8.13;;
18505;SDS011;9382;53.242;10.438;2024-01-10T05:02:42;19.33;;;8.33;;
18505;SDS011;9382;53.242;10.438;2024-01-10T05:05:11;19.53;;;7.50;;
18505;SDS011;9382;53.242;10.438;2024-01-10T05:07:41;11.40;;;6.47;;
18505;SDS011;9382;53.242;10.438;2024-01-10T05:10:16;23.87;;;8.20;;
18505;SDS011;9382;53.242;10.438;2024-01-10T05:12:47;15.27;;;6.43;;
18505;SDS011;9382;53.242;10.438;2024-01-10T05:15:19;13.03;;;7.37;;
18505;SDS011;9382;53.242;10.438;2024-01-10T05:17:53;14.47;;;7.17;;
18505;SDS011;9382;53.242;10.438;2024-01-10T05:20:27;22.63;;;8.77;;
18505;SDS011;9382;53.242;10.438;2024-01-10T05:22:55;17.63;;;7.67;;
18505;SDS011;9382;53.242;10.438;2024-01-10T05:25:28;19.90;;;9.20;;
18505;SDS011;9382;53.242;10.438;2024-01-10T05:28:00;19.80;;;8.57;;
18505;SDS011;9382;53.242;10.438;2024-01-10T05:30:40;21.83;;;9.10;;
18505;SDS011;9382;53.242;10.438;2024-01-10T05:33:10;20.10;;;9.07;;
18505;SDS011;9382;53.242;10.438;2024-01-10T05:35:39;19.43;;;8.17;;
18505;SDS011;9382;53.242;10.438;2024-01-10T05:38:14;16.00;;;7.53;;
18505;SDS011;9382;53.242;10.438;2024-01-10T05:40:56;22.20;;;8.13;;
18505;SDS011;9382;53.242;10.438;2024-01-10T05:43:23;18.20;;;8.83;;
18505;SDS011;9382;53.242;10.438;2024-01-10T05:45:54;20.30;;;7.77;;
18505;SDS011;9382;53.242;10.438;2024-01-10T05:48:30;14.67;;;8.17;;
18505;SDS011;9382;53.242;10.438;2024-01-10T05:50:59;25.43;;;8.10;;
18505;SDS011;9382;53.242;10.438;2024-01-10T05:53:28;28.47;;;9.70;;
18505;SDS011;9382;53.242;10.438;2024-01-10T05:56:00;20.77;;;7.40;;
18505;SDS011;9382;53.242;10.438;2024-01-10T05:58:34;17.80;;;7.33;;
18505;SDS011;9382;53.242;10.438;2024-01-10T06:01:05;17.67;;;9.03;;
18505;SDS011;9382;53.242;10.438;2024-01-10T06:03:35;21.93;;;8.07;;
18505;SDS011;9382;53.242;10.438;2024-01-10T06:06:04;18.97;;;8.20;;
18505;SDS011;9382;53.242;10.438;2024-01-10T06:08:33;21.43;;;7.83;;
18505;SDS011;9382;53.242;10.438;2024-01-10T06:11:05;19.40;;;7.87;;
18505;SDS011;9382;53.242;10.438;2024-01-10T06:13:39;26.97;;;8.07;;
18505;SDS011;9382;53.242;10.438;2024-01-10T06:16:10;23.73;;;7.80;;
18505;SDS011;9382;53.242;10.438;2024-01-10T06:18:40;26.20;;;9.67;;
18505;SDS011;9382;53.242;10.438;2024-01-10T06:21:13;18.23;;;7.20;;
18505;SDS011;9382;53.242;10.438;2024-01-10T06:23:41;26.33;;;8.10;;
18505;SDS011;9382;53.242;10.438;2024-01-10T06:26:11;22.73;;;7.73;;
18505;SDS011;9382;53.242;10.438;2024-01-10T06:28:43;20.90;;;7.67;;
18505;SDS011;9382;53.242;10.438;2024-01-10T06:31:10;18.10;;;8.43;;
18505;SDS011;9382;53.242;10.438;2024-01-10T06:33:39;21.83;;;8.00;;
18505;SDS011;9382;53.242;10.438;2024-01-10T06:36:07;21.73;;;8.13;;
18505;SDS011;9382;53.242;10.438;2024-01-10T06:38:45;23.87;;;9.53;;
18505;SDS011;9382;53.242;10.438;2024-01-10T06:41:16;19.63;;;8.77;;
18505;SDS011;9382;53.242;10.438;2024-01-10T06:43:45;16.60;;;8.40;;
18505;SDS011;9382;53.242;10.438;2024-01-10T06:46:15;23.57;;;10.10;;
18505;SDS011;9382;53.242;10.438;2024-01-10T06:48:47;23.63;;;9.83;;
18505;SDS011;9382;53.242;10.438;2024-01-10T06:51:15;26.27;;;9.47;;
18505;SDS011;9382;53.242;10.438;2024-01-10T06:53:43;16.63;;;8.97;;
18505;SDS011;9382;53.242;10.438;2024-01-10T06:56:13;18.93;;;8.07;;
18505;SDS011;9382;53.242;10.438;2024-01-10T06:58:44;19.80;;;8.33;;
18505;SDS011;9382;53.242;10.438;2024-01-10T07:01:14;22.13;;;10.23;;
18505;SDS011;9382;53.242;10.438;2024-01-10T07:03:47;22.13;;;9.60;;
18505;SDS011;9382;53.242;10.438;2024-01-10T07:06:14;19.77;;;8.77;;
18505;SDS011;9382;53.242;10.438;2024-01-10T07:08:41;25.33;;;9.53;;
18505;SDS011;9382;53.242;10.438;2024-01-10T07:11:09;24.00;;;9.70;;
18505;SDS011;9382;53.242;10.438;2024-01-10T07:13:40;21.93;;;9.33;;
18505;SDS011;9382;53.242;10.438;2024-01-10T07:16:10;15.40;;;6.50;;
18505;SDS011;9382;53.242;10.438;2024-01-10T07:18:42;21.03;;;8.93;;
18505;SDS011;9382;53.242;10.438;2024-01-10T07:21:11;15.27;;;6.87;;
18505;SDS011;9382;53.242;10.438;2024-01-10T07:23:44;22.13;;;7.60;;
18505;SDS011;9382;53.242;10.438;2024-01-10T07:26:15;22.33;;;9.37;;
18505;SDS011;9382;53.242;10.438;2024-01-10T07:31:36;20.83;;;8.27;;
18505;SDS011;9382;53.242;10.438;2024-01-10T07:34:03;18.53;;;8.00;;
18505;SDS011;9382;53.242;10.438;2024-01-10T07:36:36;24.87;;;9.27;;
18505;SDS011;9382;53.242;10.438;2024-01-10T07:39:12;24.80;;;9.53;;
18505;SDS011;9382;53.242;10.438;2024-01-10T07:41:48;24.13;;;8.97;;
18505;SDS011;9382;53.242;10.438;2024-01-10T07:44:19;21.00;;;8.43;;
18505;SDS011;9382;53.242;10.438;2024-01-10T07:46:48;14.57;;;7.13;;
18505;SDS011;9382;53.242;10.438;2024-01-10T07:49:22;25.30;;;8.70;;
18505;SDS011;9382;53.242;10.438;2024-01-10T07:51:51;19.60;;;7.70;;
18505;SDS011;9382;53.242;10.438;2024-01-10T07:54:22;20.57;;;8.33;;
18505;SDS011;9382;53.242;10.438;2024-01-10T07:56:49;21.30;;;9.07;;
18505;SDS011;9382;53.242;10.438;2024-01-10T07:59:24;32.67;;;9.10;;
18505;SDS011;9382;53.242;10.438;2024-01-10T08:01:54;21.77;;;8.33;;
18505;SDS011;9382;53.242;10.438;2024-01-10T08:04:30;23.60;;;9.20;;
18505;SDS011;9382;53.242;10.438;2024-01-10T08:07:00;22.67;;;9.07;;
18505;SDS011;9382;53.242;10.438;2024-01-10T08:09:31;21.67;;;8.87;;
18505;SDS011;9382;53.242;10.438;2024-01-10T08:12:00;27.13;;;10.80;;
18505;SDS011;9382;53.242;10.438;2024-01-10T08:14:33;22.87;;;8.17;;
18505;SDS011;9382;53.242;10.438;2024-01-10T08:17:03;24.37;;;9.30;;
18505;SDS011;9382;53.242;10.438;2024-01-10T08:19:36;19.63;;;8.00;;
18505;SDS011;9382;53.242;10.438;2024-01-10T08:22:10;18.10;;;7.63;;
18505;SDS011;9382;53.242;10.438;2024-01-10T08:24:38;23.07;;;8.10;;
18505;SDS011;9382;53.242;10.438;2024-01-10T08:27:05;19.63;;;7.40;;
18505;SDS011;9382;53.242;10.438;2024-01-10T08:29:36;27.23;;;8.70;;
18505;SDS011;9382;53.242;10.438;2024-01-10T08:32:08;15.97;;;7.23;;
18505;SDS011;9382;53.242;10.438;2024-01-10T08:34:46;26.70;;;9.07;;
18505;SDS011;9382;53.242;10.438;2024-01-10T08:37:13;22.27;;;8.97;;
18505;SDS011;9382;53.242;10.438;2024-01-10T08:39:47;27.43;;;9.00;;
18505;SDS011;9382;53.242;10.438;2024-01-10T08:42:15;27.43;;;9.30;;
18505;SDS011;9382;53.242;10.438;2024-01-10T08:44:46;18.13;;;7.90;;
18505;SDS011;9382;53.242;10.438;2024-01-10T08:47:14;30.80;;;8.23;;
18505;SDS011;9382;53.242;10.438;2024-01-10T08:49:49;21.87;;;7.97;;
18505;SDS011;9382;53.242;10.438;2024-01-10T08:52:19;18.17;;;7.00;;
18505;SDS011;9382;53.242;10.438;2024-01-10T08:54:48;25.83;;;7.57;;
18505;SDS011;9382;53.242;10.438;2024-01-10T08:57:17;30.50;;;8.03;;
18505;SDS011;9382;53.242;10.438;2024-01-10T08:59:46;26.10;;;8.93;;
18505;SDS011;9382;53.242;10.438;2024-01-10T09:02:13;25.60;;;7.57;;
18505;SDS011;9382;53.242;10.438;2024-01-10T09:04:43;22.23;;;8.27;;
18505;SDS011;9382;53.242;10.438;2024-01-10T09:07:12;20.97;;;8.07;;
18505;SDS011;9382;53.242;10.438;2024-01-10T09:09:47;27.37;;;7.90;;
18505;SDS011;9382;53.242;10.438;2024-01-10T09:12:16;25.97;;;9.77;;
18505;SDS011;9382;53.242;10.438;2024-01-10T09:14:43;23.27;;;8.77;;
18505;SDS011;9382;53.242;10.438;2024-01-10T09:17:12;33.20;;;9.23;;
18505;SDS011;9382;53.242;10.438;2024-01-10T09:19:39;31.67;;;10.20;;
18505;SDS011;9382;53.242;10.438;2024-01-10T09:22:06;32.33;;;9.70;;
18505;SDS011;9382;53.242;10.438;2024-01-10T09:24:35;29.70;;;9.27;;
18505;SDS011;9382;53.242;10.438;2024-01-10T09:27:03;35.87;;;9.40;;
18505;SDS011;9382;53.242;10.438;2024-01-10T09:29:30;32.83;;;9.27;;
18505;SDS011;9382;53.242;10.438;2024-01-10T09:31:59;34.00;;;10.13;;
18505;SDS011;9382;53.242;10.438;2024-01-10T09:34:27;37.40;;;10.20;;
18505;SDS011;9382;53.242;10.438;2024-01-10T09:36:55;37.83;;;9.57;;
18505;SDS011;9382;53.242;10.438;2024-01-10T09:39:22;35.93;;;10.87;;
18505;SDS011;9382;53.242;10.438;2024-01-10T09:41:49;31.80;;;10.17;;
18505;SDS011;9382;53.242;10.438;2024-01-10T09:44:16;34.93;;;9.83;;
18505;SDS011;9382;53.242;10.438;2024-01-10T09:46:45;25.80;;;9.10;;
18505;SDS011;9382;53.242;10.438;2024-01-10T09:49:14;31.87;;;9.77;;
18505;SDS011;9382;53.242;10.438;2024-01-10T09:51:48;31.10;;;10.67;;
18505;SDS011;9382;53.242;10.438;2024-01-10T09:54:15;30.97;;;10.20;;
18505;SDS011;9382;53.242;10.438;2024-01-10T09:56:44;31.87;;;10.03;;
18505;SDS011;9382;53.242;10.438;2024-01-10T09:59:11;25.90;;;9.50;;
18505;SDS011;9382;53.242;10.438;2024-01-10T10:01:38;29.67;;;10.63;;
18505;SDS011;9382;53.242;10.438;2024-01-10T10:04:05;35.40;;;10.50;;
18505;SDS011;9382;53.242;10.438;2024-01-10T10:06:37;29.93;;;10.27;;
18505;SDS011;9382;53.242;10.438;2024-01-10T10:09:06;29.07;;;9.57;;
18505;SDS011;9382;53.242;10.438;2024-01-10T10:11:33;32.80;;;10.43;;
18505;SDS011;9382;53.242;10.438;2024-01-10T10:14:13;28.83;;;9.50;;
18505;SDS011;9382;53.242;10.438;2024-01-10T10:16:44;31.30;;;10.40;;
18505;SDS011;9382;53.242;10.438;2024-01-10T10:19:20;30.20;;;10.30;;
18505;SDS011;9382;53.242;10.438;2024-01-10T10:21:48;30.30;;;9.90;;
18505;SDS011;9382;53.242;10.438;2024-01-10T10:24:17;25.50;;;9.07;;
18505;SDS011;9382;53.242;10.438;2024-01-10T10:26:43;30.43;;;9.57;;
18505;SDS011;9382;53.242;10.438;2024-01-10T10:29:10;29.57;;;9.57;;
18505;SDS011;9382;53.242;10.438;2024-01-10T10:31:37;32.37;;;9.60;;
18505;SDS011;9382;53.242;10.438;2024-01-10T10:34:04;27.17;;;8.87;;
18505;SDS011;9382;53.242;10.438;2024-01-10T10:36:31;21.93;;;8.60;;
18505;SDS011;9382;53.242;10.438;2024-01-10T10:39:01;22.43;;;8.97;;
18505;SDS011;9382;53.242;10.438;2024-01-10T10:41:32;23.37;;;9.10;;
18505;SDS011;9382;53.242;10.438;2024-01-10T10:44:01;25.50;;;9.00;;
18505;SDS011;9382;53.242;10.438;2024-01-10T10:46:30;29.13;;;9.07;;
18505;SDS011;9382;53.242;10.438;2024-01-10T10:48:59;24.27;;;9.30;;
18505;SDS011;9382;53.242;10.438;2024-01-10T10:51:33;26.53;;;9.57;;
18505;SDS011;9382;53.242;10.438;2024-01-10T10:54:03;25.77;;;9.70;;
18505;SDS011;9382;53.242;10.438;2024-01-10T10:56:32;27.40;;;9.93;;
18505;SDS011;9382;53.242;10.438;2024-01-10T10:59:00;24.63;;;9.53;;
18505;SDS011;9382;53.242;10.438;2024-01-10T11:01:29;25.40;;;8.63;;
18505;SDS011;9382;53.242;10.438;2024-01-10T11:03:57;27.77;;;9.37;;
18505;SDS011;9382;53.242;10.438;2024-01-10T11:06:24;29.80;;;10.50;;
18505;SDS011;9382;53.242;10.438;2024-01-10T11:08:52;25.63;;;10.37;;
18505;SDS011;9382;53.242;10.438;2024-01-10T11:11:24;25.60;;;9.23;;
18505;SDS011;9382;53.242;10.438;2024-01-10T11:14:08;28.97;;;9.90;;
18505;SDS011;9382;53.242;10.438;2024-01-10T11:16:50;30.77;;;10.17;;
18505;SDS011;9382;53.242;10.438;2024-01-10T11:19:38;26.67;;;10.10;;
18505;SDS011;9382;53.242;10.438;2024-01-10T11:22:29;23.67;;;9.37;;
18505;SDS011;9382;53.242;10.438;2024-01-10T11:25:09;29.60;;;10.70;;
18505;SDS011;9382;53.242;10.438;2024-01-10T11:27:38;24.10;;;8.77;;
18505;SDS011;9382;53.242;10.438;2024-01-10T11:30:05;27.20;;;9.63;;
18505;SDS011;9382;53.242;10.438;2024-01-10T11:32:33;25.50;;;9.87;;
18505;SDS011;9382;53.242;10.438;2024-01-10T11:35:03;27.37;;;9.07;;
18505;SDS011;9382;53.242;10.438;2024-01-10T11:37:42;21.33;;;8.83;;
18505;SDS011;9382;53.242;10.438;2024-01-10T11:40:10;22.17;;;9.23;;
18505;SDS011;9382;53.242;10.438;2024-01-10T11:42:42;23.83;;;9.03;;
18505;SDS011;9382;53.242;10.438;2024-01-10T11:45:09;18.70;;;8.40;;
18505;SDS011;9382;53.242;10.438;2024-01-10T11:47:42;22.90;;;9.10;;
18505;SDS011;9382;53.242;10.438;2024-01-10T11:50:09;23.40;;;9.13;;
18505;SDS011;9382;53.242;10.438;2024-01-10T11:52:45;21.87;;;9.50;;
18505;SDS011;9382;53.242;10.438;2024-01-10T11:55:22;20.83;;;8.60;;
18505;SDS011;9382;53.242;10.438;2024-01-10T11:58:19;21.03;;;8.80;;
18505;SDS011;9382;53.242;10.438;2024-01-10T12:00:49;22.10;;;9.23;;
18505;SDS011;9382;53.242;10.438;2024-01-10T12:03:16;22.13;;;9.17;;
18505;SDS011;9382;53.242;10.438;2024-01-10T12:05:45;21.50;;;8.27;;
18505;SDS011;9382;53.242;10.438;2024-01-10T12:08:11;19.73;;;8.80;;
18505;SDS011;9382;53.242;10.438;2024-01-10T12:10:38;16.13;;;7.30;;
18505;SDS011;9382;53.242;10.438;2024-01-10T12:13:05;20.37;;;9.00;;
18505;SDS011;9382;53.242;10.438;2024-01-10T12:15:33;20.97;;;9.30;;
18505;SDS011;9382;53.242;10.438;2024-01-10T12:18:01;24.93;;;8.40;;
18505;SDS011;9382;53.242;10.438;2024-01-10T12:20:27;18.50;;;8.10;;
18505;SDS011;9382;53.242;10.438;2024-01-10T12:22:54;21.47;;;8.33;;
18505;SDS011;9382;53.242;10.438;2024-01-10T12:25:21;17.20;;;8.67;;
18505;SDS011;9382;53.242;10.438;2024-01-10T12:27:48;20.60;;;9.70;;
18505;SDS011;9382;53.242;10.438;2024-01-10T12:30:15;18.63;;;9.00;;
18505;SDS011;9382;53.242;10.438;2024-01-10T12:32:44;17.60;;;8.73;;
18505;SDS011;9382;53.242;10.438;2024-01-10T12:35:16;16.37;;;8.23;;
18505;SDS011;9382;53.242;10.438;2024-01-10T12:37:52;18.07;;;8.87;;
18505;SDS011;9382;53.242;10.438;2024-01-10T12:40:22;17.30;;;8.63;;
18505;SDS011;9382;53.242;10.438;2024-01-10T12:43:00;19.30;;;9.47;;
18505;SDS011;9382;53.242;10.438;2024-01-10T12:45:28;17.13;;;8.13;;
18505;SDS011;9382;53.242;10.438;2024-01-10T12:47:56;14.90;;;8.27;;
18505;SDS011;9382;53.242;10.438;2024-01-10T12:50:23;16.63;;;9.03;;
18505;SDS011;9382;53.242;10.438;2024-01-10T12:52:51;15.43;;;8.03;;
18505;SDS011;9382;53.242;10.438;2024-01-10T12:55:17;15.70;;;8.20;;
18505;SDS011;9382;53.242;10.438;2024-01-10T12:57:45;13.00;;;7.30;;
18505;SDS011;9382;53.242;10.438;2024-01-10T13:00:12;15.73;;;7.83;;
18505;SDS011;9382;53.242;10.438;2024-01-10T13:02:40;15.13;;;8.33;;
18505;SDS011;9382;53.242;10.438;2024-01-10T13:05:08;16.73;;;8.20;;
18505;SDS011;9382;53.242;10.438;2024-01-10T13:07:35;14.00;;;7.50;;
18505;SDS011;9382;53.242;10.438;2024-01-10T13:10:02;13.93;;;7.17;;
18505;SDS011;9382;53.242;10.438;2024-01-10T13:12:29;14.80;;;8.00;;
18505;SDS011;9382;53.242;10.438;2024-01-10T13:14:57;14.97;;;8.00;;
18505;SDS011;9382;53.242;10.438;2024-01-10T13:17:23;13.87;;;7.43;;
18505;SDS011;9382;53.242;10.438;2024-01-10T13:19:50;16.17;;;7.90;;
18505;SDS011;9382;53.242;10.438;2024-01-10T13:22:20;15.40;;;8.20;;
18505;SDS011;9382;53.242;10.438;2024-01-10T13:24:47;15.30;;;7.80;;
18505;SDS011;9382;53.242;10.438;2024-01-10T13:27:13;15.50;;;8.10;;
18505;SDS011;9382;53.242;10.438;2024-01-10T13:29:40;14.20;;;7.60;;
18505;SDS011;9382;53.242;10.438;2024-01-10T13:32:07;13.20;;;7.70;;
18505;SDS011;9382;53.242;10.438;2024-01-10T13:34:35;14.03;;;8.00;;
18505;SDS011;9382;53.242;10.438;2024-01-10T13:37:02;13.93;;;7.43;;
18505;SDS011;9382;53.242;10.438;2024-01-10T13:39:31;15.93;;;8.23;;
18505;SDS011;9382;53.242;10.438;2024-01-10T13:41:57;14.87;;;8.13;;
18505;SDS011;9382;53.242;10.438;2024-01-10T13:44:24;18.57;;;8.83;;
18505;SDS011;9382;53.242;10.438;2024-01-10T13:46:54;17.40;;;8.13;;
18505;SDS011;9382;53.242;10.438;2024-01-10T13:49:21;19.13;;;8.97;;
18505;SDS011;9382;53.242;10.438;2024-01-10T13:51:48;14.87;;;8.17;;
18505;SDS011;9382;53.242;10.438;2024-01-10T13:54:15;16.60;;;8.93;;
18505;SDS011;9382;53.242;10.438;2024-01-10T13:56:44;18.00;;;8.37;;
18505;SDS011;9382;53.242;10.438;2024-01-10T13:59:15;21.67;;;11.10;;
18505;SDS011;9382;53.242;10.438;2024-01-10T14:01:49;17.40;;;8.23;;
18505;SDS011;9382;53.242;10.438;2024-01-10T14:04:22;14.40;;;7.90;;
18505;SDS011;9382;53.242;10.438;2024-01-10T14:06:53;16.57;;;8.40;;
18505;SDS011;9382;53.242;10.438;2024-01-10T14:09:32;14.60;;;8.23;;
18505;SDS011;9382;53.242;10.438;2024-01-10T14:12:15;16.13;;;8.33;;
18505;SDS011;9382;53.242;10.438;2024-01-10T14:14:42;16.80;;;9.10;;
18505;SDS011;9382;53.242;10.438;2024-01-10T14:17:09;17.67;;;8.67;;
18505;SDS011;9382;53.242;10.438;2024-01-10T14:19:36;17.40;;;9.37;;
18505;SDS011;9382;53.242;10.438;2024-01-10T14:22:02;18.40;;;9.10;;
18505;SDS011;9382;53.242;10.438;2024-01-10T14:24:29;18.97;;;8.70;;
18505;SDS011;9382;53.242;10.438;2024-01-10T14:26:57;17.60;;;8.90;;
18505;SDS011;9382;53.242;10.438;2024-01-10T14:29:26;20.07;;;10.00;;
18505;SDS011;9382;53.242;10.438;2024-01-10T14:31:52;17.47;;;9.67;;
18505;SDS011;9382;53.242;10.438;2024-01-10T14:34:19;21.30;;;10.37;;
18505;SDS011;9382;53.242;10.438;2024-01-10T14:36:46;21.53;;;9.73;;
18505;SDS011;9382;53.242;10.438;2024-01-10T14:39:12;23.33;;;9.57;;
18505;SDS011;9382;53.242;10.438;2024-01-10T14:41:40;22.40;;;9.67;;
18505;SDS011;9382;53.242;10.438;2024-01-10T14:44:07;24.70;;;9.80;;
18505;SDS011;9382;53.242;10.438;2024-01-10T14:46:35;27.10;;;9.93;;
18505;SDS011;9382;53.242;10.438;2024-01-10T14:49:03;27.37;;;10.07;;
18505;SDS011;9382;53.242;10.438;2024-01-10T14:51:30;23.57;;;9.17;;